Time;durP1;ratioP1;P1;durP2;ratioP2;P2;SDS_P1;SDS_P2;PMS_P1;PMS_P2;Temp;Humidity;BMP_temperature;BMP_pressure;BME280_temperature;BME280_humidity;BME280_pressure;Samples;Min_cycle;Max_cycle;Signal;HPM_P1;HPM_P2
2023/06/09 00:00:11;;;;;;;0.25;0.25;;;22.90;58.60;;;;;;5009166;28;20204;-83
2023/06/09 00:02:44;;;;;;;0.73;0.70;;;22.90;58.80;;;;;;5011949;28;20300;-84
2023/06/09 00:05:14;;;;;;;0.22;0.22;;;22.80;58.70;;;;;;4994171;28;20731;-82
2023/06/09 00:07:42;;;;;;;0.30;0.30;;;22.80;58.70;;;;;;4996096;28;20212;-82
2023/06/09 00:10:12;;;;;;;0.57;0.30;;;22.80;58.80;;;;;;5016218;28;20207;-82
2023/06/09 00:12:40;;;;;;;0.20;0.20;;;22.80;58.90;;;;;;5010666;28;21484;-83
2023/06/09 00:15:10;;;;;;;0.20;0.20;;;22.80;58.90;;;;;;5016437;28;20223;-83
2023/06/09 00:17:40;;;;;;;0.50;0.50;;;22.70;59.00;;;;;;5011136;28;20195;-83
2023/06/09 00:20:12;;;;;;;1.00;0.50;;;22.70;59.10;;;;;;5018379;28;20196;-82
2023/06/09 00:22:44;;;;;;;0.38;0.38;;;22.60;59.10;;;;;;5010411;28;20196;-83
2023/06/09 00:25:13;;;;;;;1.15;0.40;;;22.60;59.20;;;;;;5013131;28;20668;-83
2023/06/09 00:27:43;;;;;;;0.30;0.30;;;22.60;59.30;;;;;;5012127;28;20192;-83
2023/06/09 00:30:16;;;;;;;0.30;0.30;;;22.60;59.40;;;;;;5014343;28;20247;-83
2023/06/09 00:33:04;;;;;;;0.65;0.47;;;22.60;59.50;;;;;;5010283;28;20259;-83
2023/06/09 00:35:35;;;;;;;0.20;0.20;;;22.50;59.70;;;;;;5011268;28;20726;-82
2023/06/09 00:38:04;;;;;;;0.80;0.55;;;22.50;59.70;;;;;;5008940;28;20193;-83
2023/06/09 00:40:33;;;;;;;0.50;0.50;;;22.40;59.70;;;;;;4995362;28;20286;-82
2023/06/09 00:43:01;;;;;;;0.80;0.80;;;22.40;59.80;;;;;;5010412;28;20195;-82
2023/06/09 00:45:30;;;;;;;0.50;0.50;;;22.40;60.20;;;;;;4995344;28;20211;-82
2023/06/09 00:47:59;;;;;;;0.50;0.50;;;22.30;60.20;;;;;;5011150;28;20653;-82
2023/06/09 00:50:28;;;;;;;0.30;0.30;;;22.30;60.30;;;;;;5013143;28;20214;-82
2023/06/09 00:53:00;;;;;;;0.52;0.52;;;22.30;60.90;;;;;;5013056;28;20193;-81
2023/06/09 00:55:30;;;;;;;0.73;0.52;;;22.20;61.10;;;;;;4995153;28;20661;-81
2023/06/09 00:58:00;;;;;;;0.40;0.40;;;22.10;60.90;;;;;;5013541;28;20230;-82
2023/06/09 01:00:29;;;;;;;0.88;0.65;;;22.10;61.20;;;;;;5015161;28;20216;-83
2023/06/09 01:03:01;;;;;;;0.52;0.52;;;22.10;61.20;;;;;;5015230;28;20685;-82
2023/06/09 01:05:30;;;;;;;0.55;0.32;;;22.10;61.30;;;;;;5007895;28;20260;-82
2023/06/09 01:08:07;;;;;;;0.30;0.30;;;22.00;61.40;;;;;;5012461;28;20200;-81
2023/06/09 01:10:42;;;;;;;0.75;0.45;;;22.00;61.60;;;;;;5006348;28;20193;-82
2023/06/09 01:13:18;;;;;;;0.45;0.43;;;21.90;61.60;;;;;;5011756;28;20188;-81
2023/06/09 01:15:53;;;;;;;0.30;0.30;;;21.90;61.90;;;;;;5007651;28;20228;-82
2023/06/09 01:18:25;;;;;;;0.43;0.43;;;21.80;61.80;;;;;;5009342;28;20696;-81
2023/06/09 01:21:02;;;;;;;0.30;0.30;;;21.80;61.90;;;;;;5008946;28;20266;-81
2023/06/09 01:23:45;;;;;;;0.43;0.38;;;21.80;62.10;;;;;;5006349;28;20271;-81
2023/06/09 01:26:16;;;;;;;1.33;0.60;;;21.70;62.50;;;;;;5011146;28;20196;-81
2023/06/09 01:28:47;;;;;;;0.50;0.47;;;21.70;62.70;;;;;;5011529;28;20271;-82
2023/06/09 01:31:17;;;;;;;4.28;0.47;;;21.60;62.80;;;;;;5007061;28;20216;-81
2023/06/09 01:33:46;;;;;;;0.43;0.43;;;21.60;62.80;;;;;;5008528;28;20195;-83
2023/06/09 01:36:16;;;;;;;0.30;0.30;;;21.60;63.00;;;;;;5007797;28;20196;-82
2023/06/09 01:38:45;;;;;;;0.45;0.45;;;21.50;63.30;;;;;;5008099;28;20741;-82
2023/06/09 01:41:15;;;;;;;0.40;0.40;;;21.50;63.40;;;;;;5005563;28;20200;-82
2023/06/09 01:43:43;;;;;;;0.32;0.32;;;21.40;63.30;;;;;;5013887;28;20192;-82
2023/06/09 01:46:11;;;;;;;1.23;0.80;;;21.40;63.50;;;;;;5007652;28;20634;-83
2023/06/09 01:48:51;;;;;;;1.83;1.08;;;21.40;63.60;;;;;;5009388;28;20197;-82
2023/06/09 01:51:25;;;;;;;0.40;0.40;;;21.30;63.80;;;;;;5007541;28;20207;-81
2023/06/09 01:53:59;;;;;;;0.40;0.40;;;21.30;64.40;;;;;;5006833;28;20232;-81
2023/06/09 01:56:33;;;;;;;0.60;0.43;;;21.20;64.60;;;;;;5011016;28;20208;-81
2023/06/09 01:59:07;;;;;;;0.75;0.75;;;21.20;65.00;;;;;;5010068;28;20637;-82
2023/06/09 02:01:39;;;;;;;1.73;0.88;;;21.20;64.80;;;;;;5011637;28;20914;-82
2023/06/09 02:04:09;;;;;;;1.10;0.73;;;21.10;64.80;;;;;;5005906;28;20212;-82
2023/06/09 02:06:38;;;;;;;1.08;0.80;;;21.10;65.00;;;;;;5011672;28;20196;-82
2023/06/09 02:09:06;;;;;;;0.47;0.35;;;21.10;65.00;;;;;;5016541;28;20203;-81
2023/06/09 02:11:36;;;;;;;1.30;0.98;;;21.00;65.00;;;;;;5009811;28;20216;-84
2023/06/09 02:14:05;;;;;;;2.72;0.85;;;21.00;65.20;;;;;;5001252;28;20201;-82
2023/06/09 02:16:34;;;;;;;0.30;0.30;;;21.00;65.20;;;;;;5010336;28;20235;-83
2023/06/09 02:19:03;;;;;;;0.83;0.80;;;20.90;65.40;;;;;;5010178;28;20602;-84
2023/06/09 02:21:32;;;;;;;1.67;0.80;;;20.90;65.50;;;;;;5008856;28;20200;-83
2023/06/09 02:24:00;;;;;;;0.40;0.40;;;20.90;65.50;;;;;;5010392;28;20288;-83
2023/06/09 02:26:28;;;;;;;1.85;1.30;;;20.90;65.70;;;;;;5004705;28;20243;-82
2023/06/09 02:28:58;;;;;;;0.50;0.50;;;20.90;66.70;;;;;;5006743;28;20642;-83
2023/06/09 02:31:27;;;;;;;1.07;0.83;;;20.80;65.80;;;;;;5007842;28;20208;-81
2023/06/09 02:33:55;;;;;;;0.73;0.73;;;20.80;66.00;;;;;;5010515;28;20220;-81
2023/06/09 02:36:24;;;;;;;0.70;0.70;;;20.80;66.10;;;;;;5011567;28;20203;-82
2023/06/09 02:38:52;;;;;;;0.40;0.40;;;20.70;66.20;;;;;;5004149;28;20853;-82
2023/06/09 02:41:21;;;;;;;0.37;0.37;;;20.70;66.40;;;;;;5008556;28;20676;-81
2023/06/09 02:43:50;;;;;;;0.50;0.50;;;20.70;66.60;;;;;;5001671;28;20527;-82
2023/06/09 02:46:22;;;;;;;1.90;0.90;;;20.60;66.60;;;;;;5006488;28;20318;-82
2023/06/09 02:48:50;;;;;;;0.70;0.70;;;20.60;66.90;;;;;;4998308;28;20204;-83
2023/06/09 02:51:19;;;;;;;0.60;0.40;;;20.60;67.10;;;;;;5008324;28;20924;-82
2023/06/09 02:53:47;;;;;;;1.20;0.87;;;20.50;67.20;;;;;;5003852;28;20914;-83
2023/06/09 02:56:17;;;;;;;0.63;0.63;;;20.50;67.60;;;;;;5003919;28;20283;-83
2023/06/09 02:58:45;;;;;;;1.50;0.80;;;20.50;68.10;;;;;;5008902;28;20203;-84
2023/06/09 03:01:17;;;;;;;0.60;0.60;;;20.50;68.40;;;;;;5011691;28;21926;-82
2023/06/09 03:03:47;;;;;;;1.87;1.03;;;20.40;68.40;;;;;;5006590;28;20701;-83
2023/06/09 03:06:19;;;;;;;1.10;0.70;;;20.40;69.00;;;;;;5003337;28;20216;-81
2023/06/09 03:08:48;;;;;;;0.40;0.40;;;20.40;68.40;;;;;;5006432;28;20196;-82
2023/06/09 03:11:16;;;;;;;0.77;0.70;;;20.40;68.40;;;;;;5011285;28;20199;-82
2023/06/09 03:13:44;;;;;;;0.77;0.63;;;20.30;69.10;;;;;;5006638;28;20200;-81
2023/06/09 03:16:14;;;;;;;1.07;0.90;;;20.30;69.40;;;;;;5012562;28;20724;-82
2023/06/09 03:18:42;;;;;;;0.90;0.83;;;20.30;69.40;;;;;;5007442;28;20192;-83
2023/06/09 03:21:13;;;;;;;1.60;0.87;;;20.30;69.90;;;;;;5006240;28;20200;-82
2023/06/09 03:23:41;;;;;;;2.40;1.03;;;20.30;70.20;;;;;;5009631;28;20204;-82
2023/06/09 03:26:10;;;;;;;4.00;0.97;;;20.30;70.50;;;;;;5005476;28;20711;-81
2023/06/09 03:28:39;;;;;;;1.43;0.80;;;20.30;70.90;;;;;;4982362;28;20207;-81
2023/06/09 03:31:08;;;;;;;2.53;0.60;;;20.30;71.10;;;;;;5005104;28;20235;-81
2023/06/09 03:33:36;;;;;;;2.30;1.00;;;20.30;71.20;;;;;;5011340;28;20207;-81
2023/06/09 03:36:05;;;;;;;0.40;0.40;;;20.30;71.30;;;;;;4995742;28;20271;-82
2023/06/09 03:38:36;;;;;;;2.05;0.90;;;20.30;71.50;;;;;;5007090;28;20495;-83
2023/06/09 03:41:05;;;;;;;0.50;0.50;;;20.30;71.80;;;;;;5002520;28;20281;-81
2023/06/09 03:43:33;;;;;;;0.73;0.57;;;20.30;71.60;;;;;;5007752;28;20198;-83
2023/06/09 03:46:02;;;;;;;0.60;0.60;;;20.40;71.50;;;;;;5006769;28;20622;-81
2023/06/09 03:48:30;;;;;;;1.70;0.90;;;20.40;71.80;;;;;;4989671;28;20201;-82
2023/06/09 03:50:59;;;;;;;1.05;0.77;;;20.40;72.10;;;;;;5003662;28;20247;-82
2023/06/09 03:53:28;;;;;;;1.23;0.77;;;20.40;72.90;;;;;;5006195;28;20555;-83
2023/06/09 03:55:58;;;;;;;0.40;0.40;;;20.50;72.90;;;;;;5005051;28;20584;-81
2023/06/09 03:58:27;;;;;;;1.03;0.60;;;20.50;72.80;;;;;;5007560;28;21103;-82
2023/06/09 04:00:56;;;;;;;3.85;1.42;;;20.60;72.90;;;;;;4995664;28;20200;-82
2023/06/09 04:03:25;;;;;;;1.30;0.82;;;20.60;72.60;;;;;;4996527;28;20204;-82
2023/06/09 04:05:53;;;;;;;0.87;0.50;;;20.60;72.90;;;;;;5007550;28;20224;-82
2023/06/09 04:08:21;;;;;;;0.80;0.80;;;20.70;72.80;;;;;;5003612;28;20205;-82
2023/06/09 04:10:50;;;;;;;0.30;0.30;;;20.70;72.60;;;;;;5006142;28;20188;-81
2023/06/09 04:13:19;;;;;;;0.63;0.52;;;20.80;73.20;;;;;;5012979;28;20201;-82
2023/06/09 04:15:48;;;;;;;0.50;0.40;;;20.80;72.90;;;;;;5001517;28;20239;-81
2023/06/09 04:18:17;;;;;;;0.55;0.55;;;20.90;72.70;;;;;;5010232;28;20204;-82
2023/06/09 04:20:46;;;;;;;3.50;0.52;;;20.90;72.60;;;;;;5002466;28;20243;-82
2023/06/09 04:23:14;;;;;;;0.30;0.30;;;21.00;72.70;;;;;;5009919;28;20200;-81
2023/06/09 04:25:43;;;;;;;0.52;0.43;;;21.10;72.50;;;;;;5011617;28;20636;-82
2023/06/09 04:28:11;;;;;;;1.35;0.73;;;21.10;72.60;;;;;;5002750;28;20205;-81
2023/06/09 04:30:41;;;;;;;1.08;0.98;;;21.20;72.30;;;;;;5005501;28;20204;-81
2023/06/09 04:33:09;;;;;;;7.55;2.33;;;21.20;72.70;;;;;;5006393;28;20216;-82
2023/06/09 04:35:40;;;;;;;1.02;0.40;;;21.30;72.50;;;;;;5016902;28;20518;-82
2023/06/09 04:38:09;;;;;;;1.75;0.93;;;21.40;72.20;;;;;;5007316;28;20350;-82
2023/06/09 04:40:39;;;;;;;0.68;0.50;;;21.40;72.20;;;;;;5007100;28;20207;-82
2023/06/09 04:43:09;;;;;;;1.95;1.20;;;21.50;72.30;;;;;;5006206;28;20193;-82
2023/06/09 04:45:37;;;;;;;0.65;0.60;;;21.50;72.60;;;;;;5001843;28;20251;-82
2023/06/09 04:48:07;;;;;;;1.05;0.95;;;21.60;72.40;;;;;;5005822;28;20199;-81
2023/06/09 04:50:37;;;;;;;1.27;0.68;;;21.70;72.10;;;;;;5007286;28;20197;-83
2023/06/09 04:53:06;;;;;;;0.75;0.75;;;21.70;72.10;;;;;;5007327;28;20220;-81
2023/06/09 04:55:48;;;;;;;2.72;1.65;;;21.70;72.50;;;;;;5007617;28;20658;-82
2023/06/09 04:58:20;;;;;;;0.57;0.47;;;21.80;72.20;;;;;;4997152;28;20203;-81
2023/06/09 05:00:48;;;;;;;1.40;0.88;;;21.90;71.90;;;;;;4996972;28;20311;-81
2023/06/09 05:03:18;;;;;;;0.50;0.47;;;22.00;71.90;;;;;;5005285;28;20228;-82
2023/06/09 05:05:47;;;;;;;0.75;0.50;;;22.00;71.70;;;;;;5003674;28;20225;-80
2023/06/09 05:08:15;;;;;;;0.75;0.60;;;22.10;71.60;;;;;;5017396;28;20199;-80
2023/06/09 05:10:44;;;;;;;1.65;0.60;;;22.20;71.50;;;;;;4997034;28;20216;-81
2023/06/09 05:13:12;;;;;;;0.75;0.75;;;22.20;71.20;;;;;;5008539;28;20215;-80
2023/06/09 05:15:40;;;;;;;1.48;0.93;;;22.30;71.10;;;;;;5002572;28;20799;-80
2023/06/09 05:18:09;;;;;;;1.80;0.73;;;22.40;71.30;;;;;;5008552;28;20203;-81
2023/06/09 05:20:39;;;;;;;1.50;0.80;;;22.40;70.80;;;;;;5008532;28;20588;-80
2023/06/09 05:23:08;;;;;;;1.35;0.75;;;22.50;70.60;;;;;;5005123;28;20196;-81
2023/06/09 05:25:37;;;;;;;1.65;0.70;;;22.60;70.40;;;;;;5010446;28;20204;-81
2023/06/09 05:28:05;;;;;;;0.35;0.35;;;22.60;70.20;;;;;;5002319;28;20208;-79
2023/06/09 05:30:34;;;;;;;1.38;0.80;;;22.70;70.10;;;;;;5004376;28;20287;-80
2023/06/09 05:33:03;;;;;;;0.30;0.30;;;22.70;70.10;;;;;;5004110;28;20650;-81
2023/06/09 05:35:32;;;;;;;1.42;0.73;;;22.80;69.90;;;;;;5006680;28;20193;-79
2023/06/09 05:38:02;;;;;;;0.55;0.38;;;22.80;69.70;;;;;;5005158;28;20201;-80
2023/06/09 05:40:30;;;;;;;0.40;0.38;;;22.90;69.50;;;;;;5007752;28;20207;-81
2023/06/09 05:43:00;;;;;;;0.95;0.80;;;23.00;69.50;;;;;;5003171;28;20197;-79
2023/06/09 05:45:28;;;;;;;0.85;0.60;;;23.00;69.20;;;;;;5007678;28;20561;-81
2023/06/09 05:47:57;;;;;;;2.47;1.10;;;23.10;68.90;;;;;;5004880;28;21169;-81
2023/06/09 05:50:25;;;;;;;0.52;0.50;;;23.20;68.90;;;;;;5003676;28;20204;-81
2023/06/09 05:52:54;;;;;;;0.73;0.68;;;23.20;68.70;;;;;;5004385;28;20197;-82
2023/06/09 05:55:25;;;;;;;1.38;1.27;;;23.30;68.60;;;;;;5008987;28;20732;-81
2023/06/09 05:57:53;;;;;;;0.60;0.52;;;23.40;68.40;;;;;;5002244;28;20207;-81
2023/06/09 06:00:29;;;;;;;1.85;0.77;;;23.40;68.00;;;;;;5004223;28;20211;-81
2023/06/09 06:03:00;;;;;;;2.28;0.88;;;23.50;67.90;;;;;;5008618;28;20246;-81
2023/06/09 06:05:29;;;;;;;1.45;1.02;;;23.60;67.70;;;;;;4995949;28;20564;-80
2023/06/09 06:07:58;;;;;;;0.82;0.55;;;23.70;67.70;;;;;;5002860;28;20263;-81
2023/06/09 06:10:28;;;;;;;1.85;0.70;;;23.70;67.40;;;;;;5001613;28;20649;-82
2023/06/09 06:12:59;;;;;;;0.70;0.70;;;23.80;67.10;;;;;;4998952;28;20379;-80
2023/06/09 06:15:29;;;;;;;0.63;0.60;;;23.90;66.90;;;;;;5007175;28;20673;-82
2023/06/09 06:17:57;;;;;;;2.13;0.85;;;24.00;66.80;;;;;;5002071;28;20212;-81
2023/06/09 06:20:26;;;;;;;1.88;0.60;;;24.00;66.50;;;;;;5007189;28;20271;-81
2023/06/09 06:22:54;;;;;;;0.45;0.45;;;24.10;66.30;;;;;;5009860;28;20192;-82
2023/06/09 06:25:23;;;;;;;0.38;0.38;;;24.20;66.30;;;;;;5004415;28;20490;-82
2023/06/09 06:27:53;;;;;;;0.63;0.38;;;24.30;66.10;;;;;;5011958;28;20220;-81
2023/06/09 06:30:21;;;;;;;1.05;0.77;;;24.30;65.80;;;;;;5009187;28;20204;-82
2023/06/09 06:32:51;;;;;;;0.80;0.80;;;24.30;65.50;;;;;;5003100;28;20255;-81
2023/06/09 06:35:24;;;;;;;0.75;0.63;;;24.40;65.40;;;;;;5007223;28;20203;-81
2023/06/09 06:37:53;;;;;;;0.47;0.47;;;24.50;65.50;;;;;;5008667;28;20202;-82
2023/06/09 06:40:22;;;;;;;1.00;0.88;;;24.60;65.40;;;;;;5010793;28;20257;-81
2023/06/09 06:42:51;;;;;;;0.98;0.75;;;24.60;64.80;;;;;;5012672;28;20208;-82
2023/06/09 06:45:22;;;;;;;0.60;0.60;;;24.60;64.60;;;;;;5006852;28;20204;-82
2023/06/09 06:47:52;;;;;;;0.85;0.40;;;24.70;64.50;;;;;;5005834;28;20246;-81
2023/06/09 06:50:21;;;;;;;0.38;0.38;;;24.80;64.50;;;;;;5004284;28;20193;-81
2023/06/09 06:52:52;;;;;;;1.20;0.88;;;24.80;64.30;;;;;;5001154;28;20919;-81
2023/06/09 06:55:21;;;;;;;0.40;0.40;;;24.90;64.20;;;;;;5004464;28;20625;-81
2023/06/09 06:57:50;;;;;;;0.70;0.40;;;24.90;63.80;;;;;;4996920;28;20197;-81
2023/06/09 07:00:21;;;;;;;0.63;0.60;;;25.00;63.90;;;;;;4993792;28;20200;-81
2023/06/09 07:02:50;;;;;;;0.68;0.68;;;25.10;63.80;;;;;;5005150;28;20188;-82
2023/06/09 07:05:21;;;;;;;0.47;0.47;;;25.10;63.60;;;;;;5004199;28;20296;-82
2023/06/09 07:07:49;;;;;;;0.30;0.30;;;25.20;63.60;;;;;;5004407;28;20227;-84
2023/06/09 07:10:18;;;;;;;0.85;0.70;;;25.20;63.60;;;;;;4988336;28;20219;-84
2023/06/09 07:12:47;;;;;;;1.17;0.60;;;25.20;63.00;;;;;;4990163;28;20196;-83
2023/06/09 07:15:17;;;;;;;0.40;0.40;;;25.30;63.60;;;;;;4990673;28;20228;-83
2023/06/09 07:17:47;;;;;;;0.55;0.50;;;25.40;62.70;;;;;;5006354;28;20200;-82
2023/06/09 07:20:16;;;;;;;0.35;0.35;;;25.40;62.00;;;;;;5011032;28;20291;-85
2023/06/09 07:22:50;;;;;;;1.20;0.93;;;25.40;61.60;;;;;;5005108;28;20564;-84
2023/06/09 07:25:19;;;;;;;3.40;1.40;;;25.40;60.70;;;;;;5006902;28;20676;-84
2023/06/09 07:27:48;;;;;;;0.40;0.40;;;25.50;61.10;;;;;;5002969;28;20225;-81
2023/06/09 07:30:17;;;;;;;0.30;0.30;;;25.50;61.10;;;;;;5008975;28;20200;-81
2023/06/09 07:32:47;;;;;;;0.65;0.63;;;25.60;60.40;;;;;;5002298;28;20196;-82
2023/06/09 07:35:19;;;;;;;0.50;0.50;;;25.60;60.50;;;;;;4989472;28;20243;-80
2023/06/09 07:37:48;;;;;;;1.80;0.98;;;25.60;60.30;;;;;;5003659;28;20291;-82
2023/06/09 07:40:17;;;;;;;1.20;1.02;;;25.70;60.20;;;;;;5007422;28;20204;-83
2023/06/09 07:42:49;;;;;;;0.50;0.50;;;25.70;60.00;;;;;;5011551;28;20216;-83
2023/06/09 07:45:18;;;;;;;0.73;0.73;;;25.80;60.10;;;;;;5012182;28;20199;-81
2023/06/09 07:47:48;;;;;;;1.13;1.00;;;25.80;59.40;;;;;;5003526;28;20311;-81
2023/06/09 07:50:17;;;;;;;0.82;0.60;;;25.90;59.50;;;;;;5011844;28;20192;-81
2023/06/09 07:52:46;;;;;;;0.47;0.47;;;25.80;59.10;;;;;;5009739;28;20604;-82
2023/06/09 07:55:14;;;;;;;1.00;0.63;;;25.90;59.40;;;;;;5002195;28;20287;-85
2023/06/09 07:57:45;;;;;;;0.90;0.38;;;25.90;59.40;;;;;;5003327;28;20199;-80
2023/06/09 08:00:15;;;;;;;1.05;0.75;;;26.00;59.50;;;;;;5007701;28;20213;-80
2023/06/09 08:02:45;;;;;;;0.55;0.40;;;26.10;59.70;;;;;;5005041;28;20200;-79
2023/06/09 08:05:15;;;;;;;11.23;0.80;;;26.10;59.40;;;;;;5010291;28;20200;-80
2023/06/09 08:07:43;;;;;;;0.40;0.32;;;26.10;59.20;;;;;;5006839;28;20913;-81
2023/06/09 08:10:11;;;;;;;0.70;0.63;;;26.20;59.40;;;;;;5006156;28;20572;-81
2023/06/09 08:12:40;;;;;;;1.65;0.93;;;26.20;59.30;;;;;;5013196;28;20243;-81
2023/06/09 08:15:09;;;;;;;1.75;0.60;;;26.20;59.00;;;;;;5005516;28;20240;-80
2023/06/09 08:17:38;;;;;;;1.27;0.50;;;26.30;59.20;;;;;;4999334;28;20197;-81
2023/06/09 08:20:08;;;;;;;0.90;0.70;;;26.30;59.10;;;;;;5009573;28;20242;-80
2023/06/09 08:22:38;;;;;;;2.88;0.65;;;26.30;59.00;;;;;;5007276;28;20260;-81
2023/06/09 08:25:09;;;;;;;0.43;0.38;;;26.40;59.10;;;;;;5013540;28;20699;-79
2023/06/09 08:27:38;;;;;;;0.57;0.57;;;26.40;59.30;;;;;;5008721;28;20278;-80
2023/06/09 08:30:08;;;;;;;0.68;0.57;;;26.50;59.40;;;;;;5003389;28;20201;-79
2023/06/09 08:32:39;;;;;;;0.20;0.20;;;26.50;59.30;;;;;;5009265;28;20243;-81
2023/06/09 08:35:09;;;;;;;0.63;0.63;;;26.60;59.10;;;;;;5009442;28;20188;-80
2023/06/09 08:37:40;;;;;;;0.70;0.70;;;26.60;58.90;;;;;;5013703;28;20207;-81
2023/06/09 08:40:09;;;;;;;1.23;0.68;;;26.70;58.80;;;;;;5004033;28;20208;-80
2023/06/09 08:42:39;;;;;;;0.60;0.40;;;26.80;58.90;;;;;;5010098;28;20192;-79
2023/06/09 08:45:09;;;;;;;0.40;0.40;;;26.80;58.80;;;;;;5004657;28;20193;-80
2023/06/09 08:47:38;;;;;;;1.02;0.55;;;26.90;58.60;;;;;;5004061;28;20196;-81
2023/06/09 08:50:08;;;;;;;1.17;0.60;;;26.90;58.60;;;;;;5010613;28;20211;-80
2023/06/09 08:52:40;;;;;;;1.80;1.27;;;27.00;58.60;;;;;;5002099;28;20217;-81
2023/06/09 08:55:09;;;;;;;0.43;0.43;;;27.00;57.30;;;;;;5011560;28;20642;-80
2023/06/09 08:57:38;;;;;;;0.57;0.50;;;27.10;57.80;;;;;;5014047;28;20288;-81
2023/06/09 09:00:11;;;;;;;0.60;0.60;;;27.10;57.70;;;;;;4999329;28;20228;-81
2023/06/09 09:02:41;;;;;;;0.43;0.40;;;27.20;57.80;;;;;;5007856;28;20196;-81
2023/06/09 09:05:10;;;;;;;1.25;0.90;;;27.30;57.80;;;;;;5008092;28;20662;-80
2023/06/09 09:07:41;;;;;;;0.45;0.45;;;27.30;57.10;;;;;;5013427;28;20263;-79
2023/06/09 09:10:11;;;;;;;0.55;0.55;;;27.40;57.20;;;;;;5005140;28;20192;-83
2023/06/09 09:12:48;;;;;;;0.30;0.30;;;27.50;57.10;;;;;;5009181;28;20216;-81
2023/06/09 09:15:16;;;;;;;0.50;0.50;;;27.50;56.10;;;;;;5016149;28;20319;-80
2023/06/09 09:17:46;;;;;;;0.80;0.57;;;27.60;56.20;;;;;;5015520;28;20665;-82
2023/06/09 09:20:16;;;;;;;1.65;0.93;;;27.60;55.50;;;;;;5012065;28;20672;-81
2023/06/09 09:22:46;;;;;;;1.20;0.68;;;27.70;55.90;;;;;;5017968;28;20193;-80
2023/06/09 09:25:25;;;;;;;0.30;0.30;;;27.70;56.10;;;;;;5007116;28;20239;-80
2023/06/09 09:28:01;;;;;;;0.40;0.40;;;27.80;56.00;;;;;;5008382;28;20243;-80
2023/06/09 09:30:44;;;;;;;0.40;0.40;;;27.80;55.30;;;;;;5010315;28;20279;-79
2023/06/09 09:33:13;;;;;;;0.75;0.70;;;27.90;55.70;;;;;;5013384;28;20220;-82
2023/06/09 09:35:45;;;;;;;0.50;0.50;;;28.00;55.10;;;;;;5009303;28;20219;-82
2023/06/09 09:38:17;;;;;;;0.47;0.47;;;28.10;54.20;;;;;;5007400;28;20207;-81
2023/06/09 09:40:47;;;;;;;1.48;0.43;;;28.20;53.60;;;;;;5005936;28;20650;-81
2023/06/09 09:43:17;;;;;;;4.40;2.33;;;28.20;53.10;;;;;;5006925;28;20193;-83
2023/06/09 09:45:46;;;;;;;3.15;1.90;;;28.30;52.60;;;;;;5008211;28;20287;-82
2023/06/09 09:48:17;;;;;;;19.88;8.55;;;28.40;52.90;;;;;;5009548;28;20224;-83
2023/06/09 09:50:47;;;;;;;13.55;6.55;;;28.40;52.50;;;;;;5011007;28;20198;-84
2023/06/09 09:53:18;;;;;;;6.95;4.22;;;28.40;52.90;;;;;;5015500;28;20246;-83
2023/06/09 09:55:47;;;;;;;10.60;3.88;;;28.50;52.90;;;;;;5006353;28;20383;-83
2023/06/09 09:58:16;;;;;;;5.13;1.70;;;28.60;52.60;;;;;;5009056;28;20300;-84
2023/06/09 10:00:46;;;;;;;0.88;0.70;;;28.60;51.50;;;;;;5001964;28;20308;-84
2023/06/09 10:03:17;;;;;;;1.10;0.95;;;28.60;50.40;;;;;;5005547;28;20205;-84
2023/06/09 10:05:47;;;;;;;2.05;1.20;;;28.70;50.90;;;;;;5010167;28;20196;-81
2023/06/09 10:08:22;;;;;;;0.30;0.30;;;28.80;51.20;;;;;;4999767;28;20192;-83
2023/06/09 10:10:52;;;;;;;1.00;0.90;;;28.90;50.50;;;;;;5003944;28;20688;-82
2023/06/09 10:13:22;;;;;;;1.23;0.70;;;28.90;50.00;;;;;;5018320;28;20200;-82
2023/06/09 10:15:52;;;;;;;0.82;0.50;;;29.00;49.30;;;;;;5003645;28;20230;-81
2023/06/09 10:18:22;;;;;;;0.68;0.60;;;29.00;49.00;;;;;;5002590;28;20555;-83
2023/06/09 10:20:52;;;;;;;3.40;0.90;;;29.10;48.90;;;;;;5007329;28;20205;-81
2023/06/09 10:23:23;;;;;;;0.30;0.30;;;29.10;48.20;;;;;;5012703;28;20279;-83
2023/06/09 10:25:52;;;;;;;1.20;0.63;;;29.10;48.30;;;;;;5001796;28;20497;-81
2023/06/09 10:28:21;;;;;;;0.60;0.60;;;29.20;48.30;;;;;;5008890;28;20204;-83
2023/06/09 10:30:51;;;;;;;0.77;0.40;;;29.20;47.90;;;;;;5010653;28;20248;-81
2023/06/09 10:33:25;;;;;;;2.00;0.63;;;29.20;48.00;;;;;;5011385;28;20316;-82
2023/06/09 10:35:57;;;;;;;1.00;0.60;;;29.30;47.90;;;;;;5006766;28;20199;-83
2023/06/09 10:38:32;;;;;;;0.75;0.60;;;29.30;47.60;;;;;;5001646;28;20295;-83
2023/06/09 10:41:12;;;;;;;0.40;0.30;;;29.30;46.70;;;;;;5003889;28;20190;-82
2023/06/09 10:44:18;;;;;;;0.30;0.30;;;29.40;45.90;;;;;;5003864;28;20723;-82
2023/06/09 10:46:48;;;;;;;0.68;0.68;;;29.40;46.50;;;;;;5006042;28;20201;-82
2023/06/09 10:49:55;;;;;;;0.77;0.65;;;29.50;46.40;;;;;;5001140;28;20234;-81
2023/06/09 11:17:33;;;;;;;0.85;0.60;;;30.20;44.50;;;;;;5545730;22;15082455;-85
2023/06/09 11:36:58;;;;;;;1.17;0.77;;;30.50;42.40;;;;;;4979942;28;21094;-86
2023/06/09 11:39:35;;;;;;;0.40;0.40;;;30.40;42.50;;;;;;4969078;28;20202;-85
2023/06/09 11:42:05;;;;;;;1.00;0.70;;;30.40;42.40;;;;;;4971075;28;20708;-85
2023/06/09 11:44:36;;;;;;;0.20;0.20;;;30.30;42.00;;;;;;4971346;28;20219;-85
2023/06/09 11:47:26;;;;;;;0.38;0.30;;;30.40;42.70;;;;;;4973084;28;20604;-84
2023/06/09 11:50:09;;;;;;;0.93;0.73;;;30.40;43.00;;;;;;4971154;28;20194;-84
2023/06/09 11:52:43;;;;;;;1.23;0.60;;;30.40;42.60;;;;;;4967033;28;20189;-84
2023/06/09 11:55:17;;;;;;;0.50;0.50;;;30.40;42.60;;;;;;4966818;28;20279;-87
2023/06/09 11:57:48;;;;;;;2.33;0.95;;;30.50;42.80;;;;;;4974378;28;20728;-89
2023/06/09 12:00:18;;;;;;;0.40;0.40;;;30.50;42.60;;;;;;4978698;28;20285;-84
2023/06/09 12:02:51;;;;;;;1.08;0.77;;;30.60;42.60;;;;;;4972976;28;20317;-87
2023/06/09 12:05:21;;;;;;;0.93;0.57;;;30.60;42.60;;;;;;4979495;28;20216;-86
2023/06/09 12:07:53;;;;;;;2.83;0.75;;;30.60;42.10;;;;;;4969054;28;20657;-84
2023/06/09 12:10:23;;;;;;;0.55;0.45;;;30.70;42.10;;;;;;4972668;28;20197;-86
2023/06/09 12:12:53;;;;;;;1.17;0.60;;;30.80;42.30;;;;;;4968892;28;20276;-85
2023/06/09 12:15:24;;;;;;;1.33;0.52;;;30.80;41.60;;;;;;4969029;28;20218;-87
2023/06/09 12:17:54;;;;;;;0.35;0.35;;;30.90;42.10;;;;;;4971240;28;20194;-84
2023/06/09 12:20:24;;;;;;;0.40;0.40;;;31.00;42.30;;;;;;4972850;28;20525;-85
2023/06/09 12:22:56;;;;;;;0.73;0.32;;;31.00;42.10;;;;;;4975048;28;20194;-84
2023/06/09 12:25:26;;;;;;;0.30;0.30;;;31.10;42.50;;;;;;4964825;28;20217;-86
2023/06/09 12:28:19;;;;;;;0.45;0.45;;;31.20;41.90;;;;;;4976460;28;20201;-88
2023/06/09 12:40:09;;;;;;;0.40;0.38;;;31.40;41.80;;;;;;5003315;23;20225;-86
2023/06/09 12:42:47;;;;;;;1.17;0.40;;;31.50;42.20;;;;;;4868831;29;20204;-87
2023/06/09 12:45:17;;;;;;;7.38;0.80;;;31.60;42.10;;;;;;4870587;29;20298;-84
2023/06/09 12:48:06;;;;;;;1.48;1.17;;;31.70;41.90;;;;;;4857669;29;20208;-85
2023/06/09 12:50:35;;;;;;;2.28;0.40;;;31.70;42.30;;;;;;4856298;29;20208;-85
2023/06/09 12:53:05;;;;;;;3.00;0.80;;;31.70;42.40;;;;;;4853752;29;20206;-85
2023/06/09 12:55:35;;;;;;;0.90;0.57;;;31.60;42.60;;;;;;4856627;29;20286;-85
2023/06/09 12:58:05;;;;;;;0.43;0.40;;;31.60;42.40;;;;;;4857006;29;20204;-86
2023/06/09 13:00:33;;;;;;;1.83;0.85;;;31.70;42.70;;;;;;4857164;29;20198;-86
2023/06/09 13:03:04;;;;;;;0.57;0.40;;;31.80;42.30;;;;;;4856633;29;20212;-85
2023/06/09 13:05:33;;;;;;;0.73;0.30;;;31.70;42.50;;;;;;4861151;29;20210;-85
2023/06/09 13:08:03;;;;;;;3.50;0.65;;;31.70;42.40;;;;;;4861072;29;20654;-85
2023/06/09 13:10:36;;;;;;;0.47;0.40;;;31.80;42.20;;;;;;4858950;29;20197;-84
2023/06/09 13:13:06;;;;;;;0.95;0.50;;;31.90;42.60;;;;;;4855657;29;20205;-85
2023/06/09 13:15:34;;;;;;;1.73;0.57;;;32.10;43.10;;;;;;4858477;29;20716;-84
2023/06/09 13:18:03;;;;;;;1.48;0.43;;;32.40;43.30;;;;;;4862661;29;20301;-85
2023/06/09 13:20:32;;;;;;;0.90;0.55;;;32.60;43.00;;;;;;4856359;29;20208;-88
2023/06/09 13:23:00;;;;;;;2.70;1.27;;;32.60;41.50;;;;;;4860879;29;20212;-86
2023/06/09 13:25:29;;;;;;;0.30;0.30;;;32.60;41.00;;;;;;4858400;29;20206;-87
2023/06/09 13:27:58;;;;;;;0.52;0.50;;;32.60;41.20;;;;;;4852826;29;20216;-85
2023/06/09 13:30:27;;;;;;;1.77;0.75;;;32.50;42.10;;;;;;4854921;29;20218;-86
2023/06/09 13:32:56;;;;;;;1.08;0.90;;;32.50;41.70;;;;;;4857936;29;20254;-87
2023/06/09 13:35:26;;;;;;;1.05;0.70;;;32.40;41.50;;;;;;4858365;29;20242;-84
2023/06/09 13:37:54;;;;;;;0.50;0.50;;;32.40;41.60;;;;;;4854221;29;20208;-82
2023/06/09 13:40:23;;;;;;;0.88;0.63;;;32.30;41.80;;;;;;4852868;29;20564;-84
2023/06/09 13:42:52;;;;;;;1.13;0.50;;;32.20;41.90;;;;;;4858246;29;20206;-83
2023/06/09 13:45:23;;;;;;;2.10;0.90;;;32.20;42.20;;;;;;4864030;29;20198;-84
2023/06/09 13:47:55;;;;;;;1.15;1.02;;;32.20;41.60;;;;;;4858543;29;20969;-85
2023/06/09 13:50:31;;;;;;;0.95;0.85;;;32.10;41.40;;;;;;4855730;29;20718;-82
2023/06/09 13:53:00;;;;;;;0.63;0.63;;;32.10;41.60;;;;;;4857163;29;20209;-84